sensor_id;sensor_type;location;lat;lon;timestamp;pressure;altitude;pressure_sealevel;temperature;humidity
31044;BME280;17710;52.520;13.352;2023-03-19T00:00:15;101002.97;;;15.90;46.30
31044;BME280;17710;52.520;13.352;2023-03-19T00:02:42;101008.09;;;16.10;45.60
31044;BME280;17710;52.520;13.352;2023-03-19T00:05:14;101008.69;;;15.82;46.06
31044;BME280;17710;52.520;13.352;2023-03-19T00:07:40;101005.72;;;15.56;46.56
31044;BME280;17710;52.520;13.352;2023-03-19T00:10:07;101005.75;;;16.04;45.56
31044;BME280;17710;52.520;13.352;2023-03-19T00:12:35;101002.28;;;15.86;45.56
31044;BME280;17710;52.520;13.352;2023-03-19T00:15:02;101004.09;;;15.86;45.69
31044;BME280;17710;52.520;13.352;2023-03-19T00:17:28;100993.03;;;16.09;44.82
31044;BME280;17710;52.520;13.352;2023-03-19T00:19:55;100997.31;;;15.96;44.50
31044;BME280;17710;52.520;13.352;2023-03-19T00:22:21;100999.53;;;15.88;44.63
31044;BME280;17710;52.520;13.352;2023-03-19T00:24:47;101001.78;;;15.95;44.41
31044;BME280;17710;52.520;13.352;2023-03-19T00:27:14;100999.63;;;15.86;44.53
31044;BME280;17710;52.520;13.352;2023-03-19T00:29:41;100988.09;;;15.69;44.94
31044;BME280;17710;52.520;13.352;2023-03-19T00:32:08;100998.69;;;15.70;44.67
31044;BME280;17710;52.520;13.352;2023-03-19T00:34:35;101001.03;;;15.76;44.59
31044;BME280;17710;52.520;13.352;2023-03-19T00:37:01;100993.94;;;15.60;44.97
31044;BME280;17710;52.520;13.352;2023-03-19T00:39:28;100997.34;;;15.79;44.50
31044;BME280;17710;52.520;13.352;2023-03-19T00:41:54;100998.16;;;15.64;44.96
31044;BME280;17710;52.520;13.352;2023-03-19T00:44:20;101000.56;;;15.51;44.80
31044;BME280;17710;52.520;13.352;2023-03-19T00:46:48;100995.56;;;15.45;45.06
31044;BME280;17710;52.520;13.352;2023-03-19T00:49:14;100989.41;;;15.62;44.73
31044;BME280;17710;52.520;13.352;2023-03-19T00:51:41;100996.09;;;15.51;44.43
31044;BME280;17710;52.520;13.352;2023-03-19T00:54:09;100999.72;;;15.33;45.05
31044;BME280;17710;52.520;13.352;2023-03-19T00:56:36;101002.94;;;15.40;45.11
31044;BME280;17710;52.520;13.352;2023-03-19T00:59:02;100997.84;;;15.35;45.06
31044;BME280;17710;52.520;13.352;2023-03-19T01:01:29;101007.53;;;15.36;44.78
31044;BME280;17710;52.520;13.352;2023-03-19T01:03:57;101009.25;;;15.37;45.07
31044;BME280;17710;52.520;13.352;2023-03-19T01:06:24;101005.50;;;15.07;45.77
31044;BME280;17710;52.520;13.352;2023-03-19T01:08:50;101002.28;;;15.18;45.37
31044;BME280;17710;52.520;13.352;2023-03-19T01:11:17;101005.03;;;15.33;44.82
31044;BME280;17710;52.520;13.352;2023-03-19T01:13:43;101006.88;;;14.97;45.34
31044;BME280;17710;52.520;13.352;2023-03-19T01:16:11;101007.06;;;15.11;45.24
31044;BME280;17710;52.520;13.352;2023-03-19T01:18:37;100997.28;;;15.29;44.50
31044;BME280;17710;52.520;13.352;2023-03-19T01:21:05;101010.19;;;15.19;44.36
31044;BME280;17710;52.520;13.352;2023-03-19T01:23:32;101011.91;;;15.03;44.52
31044;BME280;17710;52.520;13.352;2023-03-19T01:25:59;101024.91;;;15.09;44.71
31044;BME280;17710;52.520;13.352;2023-03-19T01:28:25;101009.25;;;15.20;44.26
31044;BME280;17710;52.520;13.352;2023-03-19T01:30:51;101009.41;;;15.17;44.05
31044;BME280;17710;52.520;13.352;2023-03-19T01:33:18;101017.91;;;14.89;44.10
31044;BME280;17710;52.520;13.352;2023-03-19T01:35:45;101019.66;;;15.07;44.07
31044;BME280;17710;52.520;13.352;2023-03-19T01:38:14;101016.94;;;15.09;44.47
31044;BME280;17710;52.520;13.352;2023-03-19T01:40:45;101019.44;;;14.76;44.76
31044;BME280;17710;52.520;13.352;2023-03-19T01:43:15;101015.75;;;14.79;44.78
31044;BME280;17710;52.520;13.352;2023-03-19T01:45:44;101014.66;;;15.01;43.96
31044;BME280;17710;52.520;13.352;2023-03-19T01:48:26;101016.28;;;15.04;43.89
31044;BME280;17710;52.520;13.352;2023-03-19T01:50:54;101021.06;;;14.79;43.94
31044;BME280;17710;52.520;13.352;2023-03-19T01:53:24;101022.22;;;14.92;44.08
31044;BME280;17710;52.520;13.352;2023-03-19T01:55:56;101022.00;;;14.96;43.70
31044;BME280;17710;52.520;13.352;2023-03-19T01:58:24;101030.31;;;14.53;44.64
31044;BME280;17710;52.520;13.352;2023-03-19T02:00:51;101026.34;;;14.80;44.13
31044;BME280;17710;52.520;13.352;2023-03-19T02:03:18;101025.13;;;14.68;44.57
31044;BME280;17710;52.520;13.352;2023-03-19T02:05:45;101013.47;;;15.07;43.46
31044;BME280;17710;52.520;13.352;2023-03-19T02:08:14;101011.31;;;15.15;43.08
31044;BME280;17710;52.520;13.352;2023-03-19T02:10:44;101021.34;;;14.91;43.31
31044;BME280;17710;52.520;13.352;2023-03-19T02:13:11;101008.53;;;14.99;43.45
31044;BME280;17710;52.520;13.352;2023-03-19T02:15:37;101011.16;;;14.82;43.43
31044;BME280;17710;52.520;13.352;2023-03-19T02:18:04;101004.06;;;15.00;42.99
31044;BME280;17710;52.520;13.352;2023-03-19T02:20:35;101002.66;;;14.93;42.73
31044;BME280;17710;52.520;13.352;2023-03-19T02:23:11;100996.06;;;14.83;43.32
31044;BME280;17710;52.520;13.352;2023-03-19T02:25:51;100997.03;;;14.99;42.79
31044;BME280;17710;52.520;13.352;2023-03-19T02:28:20;101000.88;;;15.10;42.38
31044;BME280;17710;52.520;13.352;2023-03-19T02:30:47;100998.44;;;14.89;42.79
31044;BME280;17710;52.520;13.352;2023-03-19T02:33:16;101001.97;;;15.06;42.44
31044;BME280;17710;52.520;13.352;2023-03-19T02:35:44;101011.13;;;15.01;42.33
31044;BME280;17710;52.520;13.352;2023-03-19T02:38:12;101010.75;;;14.54;43.91
31044;BME280;17710;52.520;13.352;2023-03-19T02:40:44;101013.91;;;14.81;43.22
31044;BME280;17710;52.520;13.352;2023-03-19T02:43:15;101005.06;;;14.97;42.73
31044;BME280;17710;52.520;13.352;2023-03-19T02:45:41;101002.34;;;14.99;42.86
31044;BME280;17710;52.520;13.352;2023-03-19T02:48:07;101006.72;;;14.83;43.05
31044;BME280;17710;52.520;13.352;2023-03-19T02:50:34;101003.50;;;14.76;42.66
31044;BME280;17710;52.520;13.352;2023-03-19T02:53:01;101009.56;;;14.78;43.18
31044;BME280;17710;52.520;13.352;2023-03-19T02:55:27;101000.78;;;14.95;42.64
31044;BME280;17710;52.520;13.352;2023-03-19T02:57:53;101000.41;;;15.02;42.39
31044;BME280;17710;52.520;13.352;2023-03-19T03:00:21;101000.44;;;14.84;42.76
31044;BME280;17710;52.520;13.352;2023-03-19T03:02:49;100993.06;;;14.71;44.06
31044;BME280;17710;52.520;13.352;2023-03-19T03:05:16;101000.63;;;14.62;44.22
31044;BME280;17710;52.520;13.352;2023-03-19T03:07:42;100993.09;;;14.89;42.96
31044;BME280;17710;52.520;13.352;2023-03-19T03:10:10;100999.13;;;14.56;43.93
31044;BME280;17710;52.520;13.352;2023-03-19T03:12:36;100997.09;;;14.97;43.26
31044;BME280;17710;52.520;13.352;2023-03-19T03:15:04;100995.09;;;14.84;43.00
31044;BME280;17710;52.520;13.352;2023-03-19T03:17:32;100992.63;;;14.81;42.91
31044;BME280;17710;52.520;13.352;2023-03-19T03:19:59;100995.41;;;14.77;42.88
31044;BME280;17710;52.520;13.352;2023-03-19T03:22:25;100999.19;;;14.91;42.73
31044;BME280;17710;52.520;13.352;2023-03-19T03:24:51;100999.22;;;14.72;43.45
31044;BME280;17710;52.520;13.352;2023-03-19T03:27:18;101009.00;;;14.71;43.24
31044;BME280;17710;52.520;13.352;2023-03-19T03:29:44;101008.00;;;14.74;43.47
31044;BME280;17710;52.520;13.352;2023-03-19T03:32:14;101010.59;;;14.75;43.43
31044;BME280;17710;52.520;13.352;2023-03-19T03:34:42;101031.03;;;14.56;43.97
31044;BME280;17710;52.520;13.352;2023-03-19T03:37:13;101053.06;;;14.77;43.41
31044;BME280;17710;52.520;13.352;2023-03-19T03:39:39;101060.41;;;14.53;43.28
31044;BME280;17710;52.520;13.352;2023-03-19T03:42:06;101051.88;;;14.65;43.08
31044;BME280;17710;52.520;13.352;2023-03-19T03:44:33;101050.13;;;14.46;43.10
31044;BME280;17710;52.520;13.352;2023-03-19T03:47:00;101044.94;;;14.80;42.61
31044;BME280;17710;52.520;13.352;2023-03-19T03:49:27;101054.69;;;14.98;42.19
31044;BME280;17710;52.520;13.352;2023-03-19T03:51:55;101047.34;;;14.67;43.17
31044;BME280;17710;52.520;13.352;2023-03-19T03:54:22;101067.31;;;14.57;43.10
31044;BME280;17710;52.520;13.352;2023-03-19T03:56:48;101049.84;;;14.70;43.19
31044;BME280;17710;52.520;13.352;2023-03-19T03:59:15;101058.03;;;14.85;42.68
31044;BME280;17710;52.520;13.352;2023-03-19T04:01:42;101059.19;;;14.60;42.96
31044;BME280;17710;52.520;13.352;2023-03-19T04:04:08;101056.88;;;14.71;43.06
31044;BME280;17710;52.520;13.352;2023-03-19T04:06:35;101052.22;;;14.77;42.80
31044;BME280;17710;52.520;13.352;2023-03-19T04:09:03;101051.66;;;14.70;43.04
31044;BME280;17710;52.520;13.352;2023-03-19T04:11:29;101067.72;;;14.86;43.04
31044;BME280;17710;52.520;13.352;2023-03-19T04:13:56;101066.75;;;14.69;43.49
31044;BME280;17710;52.520;13.352;2023-03-19T04:16:22;101071.78;;;14.75;43.39
31044;BME280;17710;52.520;13.352;2023-03-19T04:18:49;101068.28;;;14.56;44.28
31044;BME280;17710;52.520;13.352;2023-03-19T04:21:16;101064.28;;;14.65;43.49
31044;BME280;17710;52.520;13.352;2023-03-19T04:23:43;101080.06;;;14.69;43.34
31044;BME280;17710;52.520;13.352;2023-03-19T04:26:10;101081.50;;;14.77;43.41
31044;BME280;17710;52.520;13.352;2023-03-19T04:28:37;101076.38;;;14.72;43.87
31044;BME280;17710;52.520;13.352;2023-03-19T04:31:06;101079.63;;;14.60;44.18
31044;BME280;17710;52.520;13.352;2023-03-19T04:33:33;101081.09;;;14.84;43.74
31044;BME280;17710;52.520;13.352;2023-03-19T04:36:00;101085.63;;;14.45;44.31
31044;BME280;17710;52.520;13.352;2023-03-19T04:38:27;101096.25;;;14.45;44.36
31044;BME280;17710;52.520;13.352;2023-03-19T04:40:53;101099.94;;;14.42;44.84
31044;BME280;17710;52.520;13.352;2023-03-19T04:43:24;101100.72;;;14.44;45.08
31044;BME280;17710;52.520;13.352;2023-03-19T04:45:50;101094.41;;;14.65;44.70
31044;BME280;17710;52.520;13.352;2023-03-19T04:48:17;101097.00;;;14.67;44.68
31044;BME280;17710;52.520;13.352;2023-03-19T04:50:43;101095.56;;;14.60;45.16
31044;BME280;17710;52.520;13.352;2023-03-19T04:53:11;101093.72;;;14.43;45.83
31044;BME280;17710;52.520;13.352;2023-03-19T04:55:38;101094.34;;;14.67;46.10
31044;BME280;17710;52.520;13.352;2023-03-19T04:58:05;101098.59;;;14.52;47.12
31044;BME280;17710;52.520;13.352;2023-03-19T05:00:34;101098.44;;;14.55;47.37
31044;BME280;17710;52.520;13.352;2023-03-19T05:03:01;101093.50;;;14.66;47.39
31044;BME280;17710;52.520;13.352;2023-03-19T05:05:27;101088.50;;;14.40;48.69
31044;BME280;17710;52.520;13.352;2023-03-19T05:07:54;101087.50;;;14.99;48.22
31044;BME280;17710;52.520;13.352;2023-03-19T05:10:21;101075.84;;;15.01;48.76
31044;BME280;17710;52.520;13.352;2023-03-19T05:12:48;101075.19;;;15.15;49.08
31044;BME280;17710;52.520;13.352;2023-03-19T05:15:15;101075.38;;;15.10;51.10
31044;BME280;17710;52.520;13.352;2023-03-19T05:17:42;101088.09;;;14.68;52.96
31044;BME280;17710;52.520;13.352;2023-03-19T05:20:10;101091.41;;;14.54;53.95
31044;BME280;17710;52.520;13.352;2023-03-19T05:22:37;101084.00;;;14.22;55.36
31044;BME280;17710;52.520;13.352;2023-03-19T05:25:04;101100.22;;;14.16;55.63
31044;BME280;17710;52.520;13.352;2023-03-19T05:27:31;101101.28;;;14.12;56.43
31044;BME280;17710;52.520;13.352;2023-03-19T05:29:57;101108.34;;;14.52;55.50
31044;BME280;17710;52.520;13.352;2023-03-19T05:32:24;101095.41;;;14.44;56.32
31044;BME280;17710;52.520;13.352;2023-03-19T05:34:52;101082.03;;;14.46;56.71
31044;BME280;17710;52.520;13.352;2023-03-19T05:37:18;101063.44;;;14.46;57.00
31044;BME280;17710;52.520;13.352;2023-03-19T05:39:45;101045.69;;;14.46;57.27
31044;BME280;17710;52.520;13.352;2023-03-19T05:42:12;101013.41;;;14.35;58.23
31044;BME280;17710;52.520;13.352;2023-03-19T05:44:38;101014.78;;;14.62;57.50
31044;BME280;17710;52.520;13.352;2023-03-19T05:47:05;101016.53;;;14.63;57.46
31044;BME280;17710;52.520;13.352;2023-03-19T05:49:33;101020.31;;;14.77;57.17
31044;BME280;17710;52.520;13.352;2023-03-19T05:52:01;101025.22;;;14.84;56.98
31044;BME280;17710;52.520;13.352;2023-03-19T05:54:28;101029.81;;;14.99;56.93
31044;BME280;17710;52.520;13.352;2023-03-19T05:56:55;101026.47;;;15.13;56.88
31044;BME280;17710;52.520;13.352;2023-03-19T05:59:21;101011.63;;;15.09;57.08
31044;BME280;17710;52.520;13.352;2023-03-19T06:01:47;101028.22;;;15.14;57.05
31044;BME280;17710;52.520;13.352;2023-03-19T06:04:14;101018.91;;;15.40;56.31
31044;BME280;17710;52.520;13.352;2023-03-19T06:06:40;101021.94;;;15.32;56.92
31044;BME280;17710;52.520;13.352;2023-03-19T06:09:08;101015.44;;;15.38;56.92
31044;BME280;17710;52.520;13.352;2023-03-19T06:11:35;101021.00;;;15.33;56.97
31044;BME280;17710;52.520;13.352;2023-03-19T06:14:03;101027.59;;;15.26;57.39
31044;BME280;17710;52.520;13.352;2023-03-19T06:16:30;101037.06;;;15.32;57.52
31044;BME280;17710;52.520;13.352;2023-03-19T06:18:56;101034.94;;;15.21;58.01
31044;BME280;17710;52.520;13.352;2023-03-19T06:21:23;101037.13;;;15.13;58.56
31044;BME280;17710;52.520;13.352;2023-03-19T06:23:53;101044.78;;;15.02;59.78
31044;BME280;17710;52.520;13.352;2023-03-19T06:26:22;101047.16;;;15.25;58.54
31044;BME280;17710;52.520;13.352;2023-03-19T06:28:48;101061.06;;;15.49;58.45
31044;BME280;17710;52.520;13.352;2023-03-19T06:31:15;101057.97;;;15.22;59.40
31044;BME280;17710;52.520;13.352;2023-03-19T06:33:42;101062.84;;;15.48;58.03
31044;BME280;17710;52.520;13.352;2023-03-19T06:36:09;101069.03;;;15.83;56.97
31044;BME280;17710;52.520;13.352;2023-03-19T06:38:35;101074.53;;;15.98;58.04
31044;BME280;17710;52.520;13.352;2023-03-19T06:41:02;101077.44;;;15.93;58.64
31044;BME280;17710;52.520;13.352;2023-03-19T06:43:30;101079.38;;;16.40;58.08
31044;BME280;17710;52.520;13.352;2023-03-19T06:46:01;101099.50;;;16.12;59.34
31044;BME280;17710;52.520;13.352;2023-03-19T06:48:27;101118.19;;;16.12;59.04
31044;BME280;17710;52.520;13.352;2023-03-19T06:50:53;101132.47;;;15.94;59.43
31044;BME280;17710;52.520;13.352;2023-03-19T06:53:20;101134.50;;;15.72;60.06
31044;BME280;17710;52.520;13.352;2023-03-19T06:55:46;101131.59;;;15.93;58.61
31044;BME280;17710;52.520;13.352;2023-03-19T06:58:12;101133.78;;;16.03;58.50
31044;BME280;17710;52.520;13.352;2023-03-19T07:00:40;101155.31;;;16.15;58.27
31044;BME280;17710;52.520;13.352;2023-03-19T07:03:07;101192.16;;;15.90;59.01
31044;BME280;17710;52.520;13.352;2023-03-19T07:05:34;101210.50;;;15.62;60.15
31044;BME280;17710;52.520;13.352;2023-03-19T07:08:01;101230.91;;;15.05;61.14
31044;BME280;17710;52.520;13.352;2023-03-19T07:10:28;101201.84;;;14.82;59.40
31044;BME280;17710;52.520;13.352;2023-03-19T07:12:54;101191.72;;;14.51;58.86
31044;BME280;17710;52.520;13.352;2023-03-19T07:15:20;101208.38;;;14.74;58.70
31044;BME280;17710;52.520;13.352;2023-03-19T07:17:48;101221.97;;;14.68;58.68
31044;BME280;17710;52.520;13.352;2023-03-19T07:20:15;101242.44;;;14.66;59.08
31044;BME280;17710;52.520;13.352;2023-03-19T07:22:42;101225.59;;;14.66;58.54
31044;BME280;17710;52.520;13.352;2023-03-19T07:25:08;101207.69;;;15.08;57.51
31044;BME280;17710;52.520;13.352;2023-03-19T07:27:35;101201.78;;;15.02;57.96
31044;BME280;17710;52.520;13.352;2023-03-19T07:30:01;101202.56;;;15.04;57.77
31044;BME280;17710;52.520;13.352;2023-03-19T07:32:28;101176.75;;;15.25;57.59
31044;BME280;17710;52.520;13.352;2023-03-19T07:34:56;101137.63;;;15.08;58.23
31044;BME280;17710;52.520;13.352;2023-03-19T07:37:22;101122.81;;;15.02;58.48
31044;BME280;17710;52.520;13.352;2023-03-19T07:39:49;101121.50;;;15.11;58.64
31044;BME280;17710;52.520;13.352;2023-03-19T07:42:15;101133.25;;;15.07;59.33
31044;BME280;17710;52.520;13.352;2023-03-19T07:44:41;101143.16;;;14.66;60.03
31044;BME280;17710;52.520;13.352;2023-03-19T07:47:08;101140.63;;;14.24;61.20
31044;BME280;17710;52.520;13.352;2023-03-19T07:49:34;101121.00;;;14.84;59.72
31044;BME280;17710;52.520;13.352;2023-03-19T07:52:02;101131.16;;;14.95;59.63
31044;BME280;17710;52.520;13.352;2023-03-19T07:54:29;101139.50;;;14.87;60.14
31044;BME280;17710;52.520;13.352;2023-03-19T07:56:55;101142.88;;;14.91;60.57
31044;BME280;17710;52.520;13.352;2023-03-19T07:59:22;101152.53;;;14.74;60.94
31044;BME280;17710;52.520;13.352;2023-03-19T08:01:48;101152.59;;;14.73;60.93
31044;BME280;17710;52.520;13.352;2023-03-19T08:04:15;101161.44;;;14.73;61.53
31044;BME280;17710;52.520;13.352;2023-03-19T08:06:41;101158.47;;;14.80;60.80
31044;BME280;17710;52.520;13.352;2023-03-19T08:09:09;101143.50;;;14.77;60.34
31044;BME280;17710;52.520;13.352;2023-03-19T08:11:36;101136.59;;;15.10;60.12
31044;BME280;17710;52.520;13.352;2023-03-19T08:14:02;101147.53;;;15.23;59.90
31044;BME280;17710;52.520;13.352;2023-03-19T08:16:28;101152.56;;;15.29;59.40
31044;BME280;17710;52.520;13.352;2023-03-19T08:18:55;101161.84;;;15.21;59.77
31044;BME280;17710;52.520;13.352;2023-03-19T08:21:21;101168.34;;;15.15;60.84
31044;BME280;17710;52.520;13.352;2023-03-19T08:23:48;101176.41;;;15.13;61.41
31044;BME280;17710;52.520;13.352;2023-03-19T08:26:16;101195.91;;;15.14;61.76
31044;BME280;17710;52.520;13.352;2023-03-19T08:28:42;101202.28;;;14.91;61.72
31044;BME280;17710;52.520;13.352;2023-03-19T08:31:09;101209.63;;;14.86;61.96
31044;BME280;17710;52.520;13.352;2023-03-19T08:33:37;101222.41;;;14.97;61.58
31044;BME280;17710;52.520;13.352;2023-03-19T08:36:05;101230.63;;;14.53;63.23
31044;BME280;17710;52.520;13.352;2023-03-19T08:38:32;101240.16;;;14.77;61.94
31044;BME280;17710;52.520;13.352;2023-03-19T08:40:58;101237.50;;;14.77;62.22
31044;BME280;17710;52.520;13.352;2023-03-19T08:43:30;101229.97;;;14.48;62.39
31044;BME280;17710;52.520;13.352;2023-03-19T08:45:57;101230.94;;;14.46;63.66
31044;BME280;17710;52.520;13.352;2023-03-19T08:48:23;101227.03;;;14.54;63.15
31044;BME280;17710;52.520;13.352;2023-03-19T08:50:52;101225.56;;;14.67;63.14
31044;BME280;17710;52.520;13.352;2023-03-19T08:53:18;101222.34;;;14.59;63.25
31044;BME280;17710;52.520;13.352;2023-03-19T08:55:50;101226.88;;;14.57;64.22
31044;BME280;17710;52.520;13.352;2023-03-19T08:58:16;101212.59;;;14.40;63.76
31044;BME280;17710;52.520;13.352;2023-03-19T09:00:44;101211.44;;;14.25;64.79
31044;BME280;17710;52.520;13.352;2023-03-19T09:03:11;101197.75;;;14.14;65.82
31044;BME280;17710;52.520;13.352;2023-03-19T09:05:37;101175.91;;;14.27;65.78
31044;BME280;17710;52.520;13.352;2023-03-19T09:08:04;101167.16;;;14.64;64.89
31044;BME280;17710;52.520;13.352;2023-03-19T09:10:31;101173.50;;;14.81;64.23
31044;BME280;17710;52.520;13.352;2023-03-19T09:12:57;101180.41;;;14.85;63.85
31044;BME280;17710;52.520;13.352;2023-03-19T09:15:24;101176.16;;;15.18;62.41
31044;BME280;17710;52.520;13.352;2023-03-19T09:17:52;101173.00;;;15.29;61.89
31044;BME280;17710;52.520;13.352;2023-03-19T09:20:19;101177.00;;;15.56;61.07
31044;BME280;17710;52.520;13.352;2023-03-19T09:22:46;101164.91;;;15.85;60.40
31044;BME280;17710;52.520;13.352;2023-03-19T09:25:12;101165.38;;;15.93;59.91
31044;BME280;17710;52.520;13.352;2023-03-19T09:27:38;101160.13;;;15.91;60.54
31044;BME280;17710;52.520;13.352;2023-03-19T09:30:06;101151.75;;;15.99;60.03
31044;BME280;17710;52.520;13.352;2023-03-19T09:32:34;101152.69;;;15.81;60.57
31044;BME280;17710;52.520;13.352;2023-03-19T09:35:02;101151.66;;;15.83;61.19
31044;BME280;17710;52.520;13.352;2023-03-19T09:37:28;101151.56;;;16.02;60.59
31044;BME280;17710;52.520;13.352;2023-03-19T09:39:55;101153.59;;;16.31;59.86
31044;BME280;17710;52.520;13.352;2023-03-19T09:42:30;101155.13;;;16.53;59.15
31044;BME280;17710;52.520;13.352;2023-03-19T09:45:11;101147.47;;;16.95;57.60
31044;BME280;17710;52.520;13.352;2023-03-19T09:47:39;101151.16;;;17.40;57.19
31044;BME280;17710;52.520;13.352;2023-03-19T09:50:12;101149.06;;;17.76;56.15
31044;BME280;17710;52.520;13.352;2023-03-19T09:52:43;101140.97;;;17.62;56.29
31044;BME280;17710;52.520;13.352;2023-03-19T09:55:18;101141.75;;;17.94;55.79
31044;BME280;17710;52.520;13.352;2023-03-19T09:57:49;101144.91;;;18.01;55.28
31044;BME280;17710;52.520;13.352;2023-03-19T10:00:20;101136.06;;;18.14;55.03
31044;BME280;17710;52.520;13.352;2023-03-19T10:02:52;101138.63;;;18.02;55.58
31044;BME280;17710;52.520;13.352;2023-03-19T10:05:28;101144.78;;;17.88;55.93
31044;BME280;17710;52.520;13.352;2023-03-19T10:08:14;101140.13;;;17.91;56.24
31044;BME280;17710;52.520;13.352;2023-03-19T10:10:50;101139.72;;;17.83;56.76
31044;BME280;17710;52.520;13.352;2023-03-19T10:13:32;101150.13;;;17.58;57.17
31044;BME280;17710;52.520;13.352;2023-03-19T10:16:03;101148.22;;;17.44;57.22
31044;BME280;17710;52.520;13.352;2023-03-19T10:18:34;101146.84;;;17.22;58.20
31044;BME280;17710;52.520;13.352;2023-03-19T10:21:09;101141.97;;;17.60;57.90
31044;BME280;17710;52.520;13.352;2023-03-19T10:23:41;101140.91;;;17.64;57.58
31044;BME280;17710;52.520;13.352;2023-03-19T10:26:11;101153.47;;;17.46;58.32
31044;BME280;17710;52.520;13.352;2023-03-19T10:28:41;101147.53;;;17.57;57.96
31044;BME280;17710;52.520;13.352;2023-03-19T10:31:17;101156.50;;;17.71;58.20
31044;BME280;17710;52.520;13.352;2023-03-19T10:33:52;101155.97;;;17.95;57.12
31044;BME280;17710;52.520;13.352;2023-03-19T10:36:26;101152.78;;;18.04;56.24
31044;BME280;17710;52.520;13.352;2023-03-19T10:38:59;101152.16;;;18.28;55.56
31044;BME280;17710;52.520;13.352;2023-03-19T10:41:42;101153.22;;;18.54;54.64
31044;BME280;17710;52.520;13.352;2023-03-19T10:44:26;101154.75;;;18.58;54.82
31044;BME280;17710;52.520;13.352;2023-03-19T10:46:56;101154.84;;;18.71;54.87
31044;BME280;17710;52.520;13.352;2023-03-19T10:49:23;101158.78;;;18.80;54.20
31044;BME280;17710;52.520;13.352;2023-03-19T10:51:55;101151.31;;;18.85;53.75
31044;BME280;17710;52.520;13.352;2023-03-19T10:54:23;101157.44;;;18.73;54.14
31044;BME280;17710;52.520;13.352;2023-03-19T10:56:54;101154.59;;;18.61;54.40
31044;BME280;17710;52.520;13.352;2023-03-19T10:59:24;101157.06;;;18.64;54.53
31044;BME280;17710;52.520;13.352;2023-03-19T11:01:56;101153.38;;;18.51;54.81
31044;BME280;17710;52.520;13.352;2023-03-19T11:04:24;101150.81;;;18.36;54.83
31044;BME280;17710;52.520;13.352;2023-03-19T11:06:54;101157.22;;;18.47;55.41
31044;BME280;17710;52.520;13.352;2023-03-19T11:09:27;101152.31;;;18.11;55.66
31044;BME280;17710;52.520;13.352;2023-03-19T11:11:58;101153.19;;;18.26;55.73
31044;BME280;17710;52.520;13.352;2023-03-19T11:14:34;101153.94;;;18.28;54.99
31044;BME280;17710;52.520;13.352;2023-03-19T11:17:05;101159.44;;;18.55;54.41
31044;BME280;17710;52.520;13.352;2023-03-19T11:19:39;101165.38;;;18.74;53.49
31044;BME280;17710;52.520;13.352;2023-03-19T11:22:14;101167.75;;;18.79;52.89
31044;BME280;17710;52.520;13.352;2023-03-19T11:24:48;101159.59;;;18.52;53.34
31044;BME280;17710;52.520;13.352;2023-03-19T11:27:15;101164.78;;;18.55;53.38
31044;BME280;17710;52.520;13.352;2023-03-19T11:29:43;101158.63;;;18.39;53.52
31044;BME280;17710;52.520;13.352;2023-03-19T11:32:46;101165.22;;;18.33;53.50
31044;BME280;17710;52.520;13.352;2023-03-19T11:35:24;101153.75;;;18.17;54.49
31044;BME280;17710;52.520;13.352;2023-03-19T11:37:55;101156.03;;;18.09;54.45
31044;BME280;17710;52.520;13.352;2023-03-19T11:40:33;101150.81;;;18.50;53.91
31044;BME280;17710;52.520;13.352;2023-03-19T11:43:32;101152.06;;;18.44;53.34
31044;BME280;17710;52.520;13.352;2023-03-19T11:46:09;101144.59;;;18.35;52.81
31044;BME280;17710;52.520;13.352;2023-03-19T11:48:57;101147.66;;;18.29;53.17
31044;BME280;17710;52.520;13.352;2023-03-19T11:51:33;101151.75;;;18.35;52.57
31044;BME280;17710;52.520;13.352;2023-03-19T11:54:08;101154.97;;;18.84;51.63
31044;BME280;17710;52.520;13.352;2023-03-19T11:56:41;101158.69;;;18.95;51.75
31044;BME280;17710;52.520;13.352;2023-03-19T11:59:17;101149.94;;;19.06;51.25
31044;BME280;17710;52.520;13.352;2023-03-19T12:02:13;101145.50;;;19.19;50.73
31044;BME280;17710;52.520;13.352;2023-03-19T12:04:58;101149.88;;;18.93;51.15
31044;BME280;17710;52.520;13.352;2023-03-19T12:07:32;101144.88;;;19.16;50.66
31044;BME280;17710;52.520;13.352;2023-03-19T12:10:23;101152.59;;;19.20;50.70
31044;BME280;17710;52.520;13.352;2023-03-19T12:12:59;101144.00;;;19.15;50.21
31044;BME280;17710;52.520;13.352;2023-03-19T12:15:34;101143.91;;;19.43;49.65
31044;BME280;17710;52.520;13.352;2023-03-19T12:18:14;101148.59;;;19.54;49.78
31044;BME280;17710;52.520;13.352;2023-03-19T12:20:51;101138.84;;;19.53;50.00
31044;BME280;17710;52.520;13.352;2023-03-19T12:23:39;101139.06;;;19.36;50.12
31044;BME280;17710;52.520;13.352;2023-03-19T12:26:16;101138.44;;;19.45;50.05
31044;BME280;17710;52.520;13.352;2023-03-19T12:28:53;101135.84;;;19.58;49.45
31044;BME280;17710;52.520;13.352;2023-03-19T12:31:34;101138.34;;;19.61;48.84
31044;BME280;17710;52.520;13.352;2023-03-19T12:34:17;101142.16;;;19.57;48.99
31044;BME280;17710;52.520;13.352;2023-03-19T12:36:49;101139.63;;;19.68;48.40
31044;BME280;17710;52.520;13.352;2023-03-19T12:39:22;101130.03;;;20.03;47.83
31044;BME280;17710;52.520;13.352;2023-03-19T12:41:55;101132.16;;;19.85;48.06
31044;BME280;17710;52.520;13.352;2023-03-19T12:44:26;101126.19;;;20.07;47.79
31044;BME280;17710;52.520;13.352;2023-03-19T12:46:57;101125.97;;;20.23;47.69
31044;BME280;17710;52.520;13.352;2023-03-19T12:49:30;101131.28;;;20.37;47.51